Time;durP1;ratioP1;P1;durP2;ratioP2;P2;SDS_P1;SDS_P2;PMS_P1;PMS_P2;Temp;Humidity;BMP_temperature;BMP_pressure;BME280_temperature;BME280_humidity;BME280_pressure;Samples;Min_cycle;Max_cycle;Signal;HPM_P1;HPM_P2
2023/09/14 00:00:50;;;;;;;0.10;0.10;;;11.20;99.90;;;;;;5088888;28;20193;-77
2023/09/14 00:03:16;;;;;;;0.10;0.10;;;11.10;99.90;;;;;;5096828;28;20742;-77
2023/09/14 00:05:43;;;;;;;0.03;0.03;;;11.20;99.90;;;;;;5089729;28;20450;-77
2023/09/14 00:08:09;;;;;;;0.10;0.10;;;11.10;99.90;;;;;;5090358;28;20234;-77
2023/09/14 00:10:35;;;;;;;0.10;0.10;;;11.10;99.90;;;;;;5090255;28;20550;-77
2023/09/14 00:13:01;;;;;;;0.00;0.00;;;11.10;99.90;;;;;;5087828;28;20484;-77
2023/09/14 00:15:26;;;;;;;0.10;0.10;;;11.10;99.90;;;;;;5068106;28;20451;-77
2023/09/14 00:17:52;;;;;;;0.10;0.10;;;11.10;99.90;;;;;;5090002;28;20202;-77
2023/09/14 00:20:22;;;;;;;0.10;0.10;;;11.10;99.90;;;;;;5087154;28;20254;-77
2023/09/14 00:22:50;;;;;;;0.10;0.10;;;11.00;99.90;;;;;;5103827;28;20470;-77
2023/09/14 00:25:17;;;;;;;0.10;0.10;;;11.00;99.90;;;;;;5087007;28;20475;-77
2023/09/14 00:27:42;;;;;;;0.00;0.00;;;10.90;99.90;;;;;;5089568;28;20514;-77
2023/09/14 00:30:08;;;;;;;0.07;0.07;;;10.90;99.90;;;;;;5086560;28;20531;-77
2023/09/14 00:32:38;;;;;;;0.07;0.07;;;10.90;99.90;;;;;;5081311;28;20184;-77
2023/09/14 00:35:05;;;;;;;0.07;0.07;;;10.90;99.90;;;;;;5090825;28;20439;-77
2023/09/14 00:37:31;;;;;;;0.10;0.10;;;10.90;99.90;;;;;;5092708;28;20466;-77
2023/09/14 00:39:57;;;;;;;0.10;0.10;;;10.90;99.90;;;;;;5087795;28;21172;-77
2023/09/14 00:42:22;;;;;;;0.10;0.10;;;10.80;99.90;;;;;;5086366;28;20197;-77
2023/09/14 00:44:48;;;;;;;0.10;0.10;;;10.80;99.90;;;;;;5090135;28;20244;-77
2023/09/14 00:47:13;;;;;;;0.10;0.10;;;10.80;99.90;;;;;;5087577;28;20692;-77
2023/09/14 00:49:39;;;;;;;0.07;0.07;;;10.70;99.90;;;;;;5088839;28;20195;-77
2023/09/14 00:52:06;;;;;;;0.10;0.10;;;10.70;99.90;;;;;;5090443;28;20194;-77
2023/09/14 00:54:32;;;;;;;0.10;0.10;;;10.70;99.90;;;;;;5068533;28;22307;-77
2023/09/14 00:56:58;;;;;;;0.10;0.10;;;10.60;99.90;;;;;;5087429;28;20443;-77
2023/09/14 00:59:24;;;;;;;0.10;0.10;;;10.60;99.90;;;;;;5086866;28;20947;-77
2023/09/14 01:01:50;;;;;;;0.10;0.10;;;10.60;99.90;;;;;;5083753;28;20453;-76
2023/09/14 01:04:16;;;;;;;0.10;0.10;;;10.60;99.90;;;;;;5083617;28;20579;-77
2023/09/14 01:06:42;;;;;;;0.00;0.00;;;10.60;99.90;;;;;;5085049;28;20600;-77
2023/09/14 01:09:07;;;;;;;0.10;0.10;;;10.50;99.90;;;;;;5087075;28;20201;-77
2023/09/14 01:11:33;;;;;;;0.10;0.10;;;10.50;99.90;;;;;;5088594;28;20263;-77
2023/09/14 01:14:13;;;;;;;0.07;0.07;;;10.40;99.90;;;;;;5089146;28;20184;-77
2023/09/14 01:16:58;;;;;;;0.10;0.10;;;10.40;99.90;;;;;;5081602;28;20181;-77
2023/09/14 01:20:01;;;;;;;0.10;0.10;;;10.40;99.90;;;;;;5092050;28;20799;-77
2023/09/14 01:22:51;;;;;;;0.10;0.10;;;10.40;99.90;;;;;;5071772;28;20846;-77
2023/09/14 01:25:39;;;;;;;0.10;0.10;;;10.40;99.90;;;;;;5087542;28;20490;-77
2023/09/14 01:28:11;;;;;;;0.10;0.10;;;10.40;99.90;;;;;;5087293;28;20753;-77
2023/09/14 01:30:39;;;;;;;0.10;0.10;;;10.30;99.90;;;;;;5087692;28;20443;-77
2023/09/14 01:33:06;;;;;;;0.10;0.10;;;10.30;99.90;;;;;;5068313;28;20970;-77
2023/09/14 01:35:39;;;;;;;0.10;0.10;;;10.30;99.90;;;;;;5088073;28;20471;-77
2023/09/14 01:38:05;;;;;;;0.10;0.10;;;10.20;99.90;;;;;;5083407;28;20516;-77
2023/09/14 01:40:34;;;;;;;0.10;0.10;;;10.20;99.90;;;;;;5075724;28;20451;-77
2023/09/14 01:43:01;;;;;;;0.10;0.10;;;10.20;99.90;;;;;;5087471;28;20442;-77
2023/09/14 01:45:27;;;;;;;0.10;0.10;;;10.20;99.90;;;;;;5087821;28;20469;-77
2023/09/14 01:47:53;;;;;;;0.10;0.10;;;10.10;99.90;;;;;;5086917;28;20443;-77
2023/09/14 01:50:19;;;;;;;0.10;0.10;;;10.00;99.90;;;;;;5086099;28;20521;-77
2023/09/14 01:52:45;;;;;;;0.10;0.10;;;10.10;99.90;;;;;;5082506;28;20444;-77
2023/09/14 01:55:12;;;;;;;0.10;0.10;;;10.10;99.90;;;;;;5095695;28;20212;-77
2023/09/14 01:57:38;;;;;;;0.10;0.10;;;10.00;99.90;;;;;;5069587;28;20475;-77
2023/09/14 02:00:04;;;;;;;0.10;0.10;;;10.00;99.90;;;;;;5084853;28;20512;-76
2023/09/14 02:02:29;;;;;;;0.10;0.10;;;10.00;99.90;;;;;;5087155;28;20186;-77
2023/09/14 02:04:55;;;;;;;0.10;0.10;;;10.00;99.90;;;;;;5081132;28;20487;-77
2023/09/14 02:07:20;;;;;;;0.10;0.10;;;9.90;99.90;;;;;;5082383;28;20183;-77
2023/09/14 02:09:46;;;;;;;0.10;0.10;;;9.90;99.90;;;;;;5088562;28;20185;-77
2023/09/14 02:12:11;;;;;;;0.10;0.10;;;9.90;99.90;;;;;;5088401;28;20796;-77
2023/09/14 02:14:37;;;;;;;0.10;0.10;;;9.90;99.90;;;;;;5091538;28;20589;-77
2023/09/14 02:17:03;;;;;;;0.10;0.10;;;9.90;99.90;;;;;;5088552;28;20208;-77
2023/09/14 02:19:28;;;;;;;0.10;0.10;;;9.80;99.90;;;;;;5073422;28;20181;-77
2023/09/14 02:21:54;;;;;;;0.10;0.10;;;9.80;99.90;;;;;;5087882;28;20491;-77
2023/09/14 02:24:19;;;;;;;0.07;0.07;;;9.80;99.90;;;;;;5090520;28;20240;-77
2023/09/14 02:26:46;;;;;;;0.10;0.10;;;9.80;99.90;;;;;;5092512;28;20189;-77
2023/09/14 02:29:12;;;;;;;0.10;0.10;;;9.80;99.90;;;;;;5075476;28;20181;-77
2023/09/14 02:31:37;;;;;;;0.10;0.10;;;9.80;99.90;;;;;;5089367;28;20439;-77
2023/09/14 02:34:03;;;;;;;0.07;0.07;;;9.80;99.90;;;;;;5091492;28;20256;-77
2023/09/14 02:36:28;;;;;;;0.10;0.10;;;9.80;99.90;;;;;;5090008;28;20183;-77
2023/09/14 02:38:54;;;;;;;0.10;0.10;;;9.80;99.90;;;;;;5086905;28;20185;-77
2023/09/14 02:41:20;;;;;;;0.10;0.10;;;9.70;99.90;;;;;;5089179;28;20199;-77
2023/09/14 02:43:45;;;;;;;0.10;0.10;;;9.70;99.90;;;;;;5091767;28;20358;-77
2023/09/14 02:46:11;;;;;;;0.10;0.10;;;9.60;99.90;;;;;;5087854;28;20189;-77
2023/09/14 02:48:36;;;;;;;0.10;0.10;;;9.60;99.90;;;;;;5089202;28;20192;-77
2023/09/14 02:51:03;;;;;;;0.10;0.10;;;9.60;99.90;;;;;;5094779;28;20218;-77
2023/09/14 02:53:28;;;;;;;0.10;0.10;;;9.60;99.90;;;;;;5091312;28;20694;-77
2023/09/14 02:55:54;;;;;;;0.10;0.10;;;9.60;99.90;;;;;;5087618;28;20439;-77
2023/09/14 02:58:19;;;;;;;0.10;0.10;;;9.60;99.90;;;;;;5090034;28;20237;-77
2023/09/14 03:00:45;;;;;;;0.07;0.07;;;9.60;99.90;;;;;;5071852;28;20193;-77
2023/09/14 03:03:10;;;;;;;0.10;0.10;;;9.60;99.90;;;;;;5090829;28;20189;-77
2023/09/14 03:05:36;;;;;;;0.10;0.10;;;9.60;99.90;;;;;;5090116;28;20731;-77
2023/09/14 03:08:01;;;;;;;0.10;0.10;;;9.60;99.90;;;;;;5091148;28;20252;-77
2023/09/14 03:10:27;;;;;;;0.10;0.10;;;9.50;99.90;;;;;;5093936;28;20197;-77
2023/09/14 03:12:52;;;;;;;0.10;0.10;;;9.50;99.90;;;;;;5090328;28;20279;-77
2023/09/14 03:15:18;;;;;;;0.10;0.10;;;9.50;99.90;;;;;;5084392;28;20201;-76
2023/09/14 03:17:43;;;;;;;0.10;0.10;;;9.50;99.90;;;;;;5088390;28;20200;-76
2023/09/14 03:20:10;;;;;;;0.10;0.10;;;9.50;99.90;;;;;;5091379;28;20236;-77
2023/09/14 03:22:36;;;;;;;0.10;0.10;;;9.50;99.90;;;;;;5090744;28;20641;-76
2023/09/14 03:25:02;;;;;;;0.10;0.10;;;9.50;99.90;;;;;;5071569;28;20478;-76
2023/09/14 03:27:27;;;;;;;0.10;0.10;;;9.50;99.90;;;;;;5086487;28;20184;-75
2023/09/14 03:29:53;;;;;;;0.10;0.10;;;9.40;99.90;;;;;;5071533;28;20174;-76
2023/09/14 03:32:18;;;;;;;0.10;0.10;;;9.40;99.90;;;;;;5090341;28;20185;-77
2023/09/14 03:34:44;;;;;;;0.10;0.10;;;9.40;99.90;;;;;;5088526;28;20558;-77
2023/09/14 03:37:10;;;;;;;0.10;0.10;;;9.40;99.90;;;;;;5067263;28;20657;-77
2023/09/14 03:39:36;;;;;;;0.10;0.10;;;9.30;99.90;;;;;;5089568;28;20181;-77
2023/09/14 03:42:01;;;;;;;0.10;0.10;;;9.40;99.90;;;;;;5089384;28;20629;-76
2023/09/14 03:44:27;;;;;;;0.10;0.10;;;9.30;99.90;;;;;;5084385;28;20232;-77
2023/09/14 03:46:52;;;;;;;0.10;0.10;;;9.30;99.90;;;;;;5085013;28;20189;-76
2023/09/14 03:49:18;;;;;;;0.10;0.10;;;9.30;99.90;;;;;;5086897;28;20181;-77
2023/09/14 03:51:43;;;;;;;0.10;0.10;;;9.30;99.90;;;;;;5069845;28;20539;-77
2023/09/14 03:54:09;;;;;;;0.10;0.10;;;9.30;99.90;;;;;;5072393;28;20177;-77
2023/09/14 03:56:35;;;;;;;0.10;0.10;;;9.30;99.90;;;;;;5073983;28;20276;-76
2023/09/14 03:59:02;;;;;;;0.10;0.10;;;9.30;99.90;;;;;;5084865;28;20225;-76
2023/09/14 04:01:27;;;;;;;0.20;0.20;;;9.30;99.90;;;;;;5081709;28;20469;-77
2023/09/14 04:03:53;;;;;;;0.10;0.10;;;9.30;99.90;;;;;;5083922;28;20982;-76
2023/09/14 04:06:18;;;;;;;0.10;0.10;;;9.30;99.90;;;;;;5090053;28;20170;-76
2023/09/14 04:08:44;;;;;;;0.10;0.10;;;9.30;99.90;;;;;;5086118;28;20220;-77
2023/09/14 04:11:10;;;;;;;0.10;0.10;;;9.30;99.90;;;;;;5089174;28;20808;-77
2023/09/14 04:13:36;;;;;;;0.10;0.10;;;9.30;99.90;;;;;;5073908;28;20189;-77
2023/09/14 04:16:04;;;;;;;0.10;0.10;;;9.30;99.90;;;;;;5067187;28;20488;-77
2023/09/14 04:18:35;;;;;;;0.10;0.10;;;9.30;99.90;;;;;;5090865;28;20182;-77
2023/09/14 04:21:01;;;;;;;0.10;0.10;;;9.20;99.90;;;;;;5094328;28;20441;-77
2023/09/14 04:23:27;;;;;;;0.10;0.10;;;9.30;99.90;;;;;;5093102;28;20556;-76
2023/09/14 04:25:53;;;;;;;0.10;0.10;;;9.30;99.90;;;;;;5089254;28;20501;-76
2023/09/14 04:28:19;;;;;;;0.10;0.10;;;9.20;99.90;;;;;;5089285;28;20184;-76
2023/09/14 04:30:45;;;;;;;0.07;0.07;;;9.20;99.90;;;;;;5085869;28;20438;-76
2023/09/14 04:33:15;;;;;;;0.10;0.10;;;9.20;99.90;;;;;;5090594;28;20465;-76
2023/09/14 04:35:41;;;;;;;0.10;0.10;;;9.20;99.90;;;;;;5070489;28;20443;-76
2023/09/14 04:38:08;;;;;;;0.10;0.10;;;9.20;99.90;;;;;;5087884;28;20447;-77
2023/09/14 04:40:41;;;;;;;0.10;0.10;;;9.30;99.90;;;;;;5088687;28;20192;-76
2023/09/14 04:43:08;;;;;;;0.17;0.17;;;9.20;99.90;;;;;;5086504;28;20493;-77
2023/09/14 04:45:34;;;;;;;0.10;0.10;;;9.20;99.90;;;;;;5085767;28;20427;-76
2023/09/14 04:48:00;;;;;;;0.13;0.13;;;9.20;99.90;;;;;;5086159;28;20445;-76
2023/09/14 04:50:26;;;;;;;0.10;0.10;;;9.30;99.90;;;;;;5072062;28;20267;-76
2023/09/14 04:52:51;;;;;;;0.10;0.10;;;9.20;99.90;;;;;;5097451;28;21158;-76
2023/09/14 04:55:17;;;;;;;0.10;0.10;;;9.20;99.90;;;;;;5084333;28;20431;-76
2023/09/14 04:57:42;;;;;;;0.10;0.10;;;9.20;99.90;;;;;;5087217;28;20598;-76
2023/09/14 05:00:12;;;;;;;0.13;0.13;;;9.20;99.90;;;;;;5070557;28;20523;-76
2023/09/14 05:02:38;;;;;;;0.10;0.10;;;9.10;99.90;;;;;;5085546;28;20181;-76
2023/09/14 05:05:04;;;;;;;0.10;0.10;;;9.10;99.90;;;;;;5080460;28;20497;-76
2023/09/14 05:07:29;;;;;;;0.10;0.10;;;9.20;99.90;;;;;;5087196;28;20439;-76
2023/09/14 05:09:55;;;;;;;0.10;0.10;;;9.20;99.90;;;;;;5065941;28;20482;-76
2023/09/14 05:12:21;;;;;;;0.07;0.07;;;9.20;99.90;;;;;;5080824;28;20192;-77
2023/09/14 05:14:46;;;;;;;0.10;0.10;;;9.20;99.90;;;;;;5087062;28;20439;-77
2023/09/14 05:17:12;;;;;;;0.10;0.10;;;9.20;99.90;;;;;;5082429;28;20216;-77
2023/09/14 05:19:42;;;;;;;0.10;0.10;;;9.20;99.90;;;;;;5086213;28;20267;-77
2023/09/14 05:22:10;;;;;;;0.20;0.20;;;9.20;99.90;;;;;;5086122;28;20557;-77
2023/09/14 05:24:39;;;;;;;0.20;0.20;;;9.10;99.90;;;;;;5094774;28;20482;-77
2023/09/14 05:27:05;;;;;;;0.20;0.20;;;9.10;99.90;;;;;;5082155;28;20442;-76
2023/09/14 05:29:31;;;;;;;0.20;0.20;;;9.10;99.90;;;;;;5080606;28;20447;-77
2023/09/14 05:31:56;;;;;;;0.20;0.20;;;9.10;99.90;;;;;;5083441;28;20181;-77
2023/09/14 05:34:22;;;;;;;0.20;0.20;;;9.10;99.90;;;;;;5086328;28;20184;-76
2023/09/14 05:36:49;;;;;;;0.20;0.20;;;9.10;99.90;;;;;;5086085;28;20200;-76
2023/09/14 05:39:14;;;;;;;0.20;0.20;;;9.10;99.90;;;;;;5087975;28;20196;-77
2023/09/14 05:41:40;;;;;;;0.20;0.20;;;9.10;99.90;;;;;;5087279;28;20446;-77
2023/09/14 05:44:10;;;;;;;0.20;0.20;;;9.20;99.90;;;;;;5088473;28;20200;-77
2023/09/14 05:46:39;;;;;;;0.10;0.10;;;9.20;99.90;;;;;;5080687;28;20185;-77
2023/09/14 05:49:05;;;;;;;0.10;0.10;;;9.10;99.90;;;;;;5089608;28;20443;-77
2023/09/14 05:51:31;;;;;;;0.10;0.10;;;9.20;99.90;;;;;;5102125;28;20447;-77
2023/09/14 05:53:56;;;;;;;0.10;0.10;;;9.30;99.90;;;;;;5090542;28;20439;-77
2023/09/14 05:56:22;;;;;;;0.10;0.10;;;9.30;99.90;;;;;;5089735;28;20189;-77
2023/09/14 05:58:48;;;;;;;0.10;0.10;;;9.40;99.90;;;;;;5075510;28;20224;-77
2023/09/14 06:01:16;;;;;;;0.10;0.10;;;9.40;99.90;;;;;;5090091;28;20185;-77
2023/09/14 06:03:42;;;;;;;0.10;0.10;;;9.50;99.90;;;;;;5078431;28;21071;-77
2023/09/14 06:06:09;;;;;;;0.10;0.10;;;9.60;99.90;;;;;;5088666;28;21219;-77
2023/09/14 06:08:35;;;;;;;0.10;0.10;;;9.70;99.90;;;;;;5072751;28;20678;-77
2023/09/14 06:11:01;;;;;;;0.10;0.10;;;9.80;99.90;;;;;;5091766;28;20538;-76
2023/09/14 06:13:26;;;;;;;0.10;0.10;;;9.90;99.90;;;;;;5091688;28;20524;-77
2023/09/14 06:15:52;;;;;;;0.07;0.07;;;10.00;99.90;;;;;;5089462;28;20291;-77
2023/09/14 06:18:18;;;;;;;0.10;0.10;;;10.20;99.90;;;;;;5088674;28;20193;-77
2023/09/14 06:20:44;;;;;;;0.10;0.10;;;10.30;99.90;;;;;;5068631;28;20230;-76
2023/09/14 06:23:09;;;;;;;0.10;0.10;;;10.50;99.90;;;;;;5084382;28;20189;-76
2023/09/14 06:25:35;;;;;;;0.00;0.00;;;10.70;99.90;;;;;;5071373;28;20524;-77
2023/09/14 06:28:00;;;;;;;0.10;0.10;;;10.90;99.90;;;;;;5088137;28;20182;-77
2023/09/14 06:30:26;;;;;;;0.07;0.07;;;11.20;99.90;;;;;;5085103;28;20189;-77
2023/09/14 06:32:52;;;;;;;0.10;0.10;;;11.60;99.90;;;;;;5101043;27;20181;-77
2023/09/14 06:35:17;;;;;;;0.10;0.10;;;11.80;99.90;;;;;;5079102;28;20220;-77
2023/09/14 06:37:43;;;;;;;0.07;0.07;;;11.90;99.90;;;;;;5073831;28;20193;-77
2023/09/14 06:40:09;;;;;;;0.10;0.10;;;12.00;99.90;;;;;;5085271;28;20734;-77
2023/09/14 06:42:36;;;;;;;0.00;0.00;;;12.10;99.90;;;;;;5087071;28;20201;-74
2023/09/14 06:45:01;;;;;;;0.10;0.10;;;12.10;99.90;;;;;;5077043;28;20467;-77
2023/09/14 06:47:27;;;;;;;0.10;0.10;;;12.00;99.90;;;;;;5086243;28;21115;-77
2023/09/14 06:49:52;;;;;;;0.00;0.00;;;12.00;99.90;;;;;;5090238;28;20439;-77
2023/09/14 06:52:18;;;;;;;0.00;0.00;;;12.00;99.90;;;;;;5087209;28;20185;-77
2023/09/14 06:54:46;;;;;;;0.10;0.10;;;12.00;99.90;;;;;;5083241;28;20186;-77
2023/09/14 06:57:11;;;;;;;0.00;0.00;;;12.00;99.90;;;;;;5082647;28;20205;-77
2023/09/14 06:59:37;;;;;;;0.00;0.00;;;12.00;99.90;;;;;;5070374;28;20465;-77
2023/09/14 07:02:03;;;;;;;0.00;0.00;;;12.20;99.90;;;;;;5084833;28;20203;-77
2023/09/14 07:04:29;;;;;;;0.03;0.03;;;12.40;99.90;;;;;;5083624;28;20225;-77
2023/09/14 07:06:55;;;;;;;0.00;0.00;;;12.60;99.90;;;;;;5087063;28;20184;-77
2023/09/14 07:09:20;;;;;;;0.10;0.10;;;12.80;99.90;;;;;;5082590;28;20443;-77
2023/09/14 07:11:46;;;;;;;0.10;0.10;;;13.10;99.90;;;;;;5086644;28;20242;-77
2023/09/14 07:14:11;;;;;;;0.00;0.00;;;13.20;99.90;;;;;;5083837;28;20239;-77
2023/09/14 07:16:37;;;;;;;0.10;0.10;;;13.30;99.90;;;;;;5087186;28;20236;-77
2023/09/14 07:19:03;;;;;;;0.10;0.10;;;13.20;99.90;;;;;;5089501;28;20704;-79
2023/09/14 07:21:32;;;;;;;0.10;0.10;;;13.40;99.90;;;;;;5089679;28;20606;-80
2023/09/14 07:23:59;;;;;;;0.00;0.00;;;13.50;99.90;;;;;;5070188;28;20561;-78
2023/09/14 07:26:25;;;;;;;0.00;0.00;;;13.50;99.90;;;;;;5089012;28;20553;-77
2023/09/14 07:28:51;;;;;;;0.00;0.00;;;13.70;99.90;;;;;;5088191;28;21001;-78
2023/09/14 07:31:16;;;;;;;0.00;0.00;;;13.80;99.90;;;;;;5103509;28;20204;-78
2023/09/14 07:33:45;;;;;;;0.00;0.00;;;14.10;99.90;;;;;;5100839;28;20182;-79
2023/09/14 07:36:10;;;;;;;0.00;0.00;;;14.30;99.90;;;;;;5069464;28;20637;-80
2023/09/14 07:38:37;;;;;;;0.00;0.00;;;14.20;99.90;;;;;;5089379;28;20526;-80
2023/09/14 07:41:03;;;;;;;0.00;0.00;;;14.30;99.90;;;;;;5077148;28;20185;-80
2023/09/14 07:43:28;;;;;;;0.00;0.00;;;14.60;99.90;;;;;;5105789;28;20930;-80
2023/09/14 07:45:55;;;;;;;0.00;0.00;;;14.50;99.90;;;;;;5070216;28;20471;-80
2023/09/14 07:48:21;;;;;;;0.10;0.10;;;14.80;99.90;;;;;;5072294;28;20189;-81
2023/09/14 07:50:47;;;;;;;0.10;0.10;;;15.10;99.90;;;;;;5087838;28;20466;-80
2023/09/14 07:53:13;;;;;;;0.10;0.10;;;15.10;99.90;;;;;;5089028;28;20479;-80
2023/09/14 07:55:38;;;;;;;0.00;0.00;;;15.30;99.90;;;;;;5084093;28;20436;-81
2023/09/14 07:58:08;;;;;;;0.00;0.00;;;15.50;99.90;;;;;;5085666;28;20219;-81
2023/09/14 08:00:35;;;;;;;0.00;0.00;;;15.60;99.90;;;;;;5067486;28;20186;-80
2023/09/14 08:03:01;;;;;;;0.00;0.00;;;15.90;99.90;;;;;;5071783;28;20462;-81
2023/09/14 08:05:28;;;;;;;0.00;0.00;;;16.00;99.90;;;;;;5088459;28;21008;-81
2023/09/14 08:07:54;;;;;;;0.00;0.00;;;16.00;99.90;;;;;;5072594;28;20510;-81
2023/09/14 08:10:19;;;;;;;0.00;0.00;;;16.20;99.90;;;;;;5089383;28;20447;-81
2023/09/14 08:12:45;;;;;;;0.00;0.00;;;16.50;99.90;;;;;;5089595;28;20259;-81
2023/09/14 08:15:12;;;;;;;0.00;0.00;;;16.60;99.90;;;;;;5088136;28;20217;-81
2023/09/14 08:17:38;;;;;;;0.00;0.00;;;16.50;99.90;;;;;;5058942;28;20254;-80
2023/09/14 08:20:04;;;;;;;0.00;0.00;;;16.10;99.90;;;;;;5088493;28;20451;-81
2023/09/14 08:22:30;;;;;;;0.00;0.00;;;16.10;99.90;;;;;;5086814;28;20922;-81
2023/09/14 08:25:00;;;;;;;0.00;0.00;;;16.30;99.90;;;;;;5090695;28;20536;-80
2023/09/14 08:27:26;;;;;;;0.00;0.00;;;16.10;99.90;;;;;;5089494;28;20442;-81
2023/09/14 08:29:51;;;;;;;0.00;0.00;;;16.20;99.90;;;;;;5089186;28;20439;-81
2023/09/14 08:32:17;;;;;;;0.00;0.00;;;16.50;99.90;;;;;;5086935;28;20530;-81
2023/09/14 08:34:42;;;;;;;0.00;0.00;;;16.80;99.90;;;;;;5089521;28;20193;-80
2023/09/14 08:37:09;;;;;;;0.00;0.00;;;16.50;99.90;;;;;;5088977;28;20706;-80
2023/09/14 08:39:35;;;;;;;0.00;0.00;;;16.20;99.90;;;;;;5089965;28;20243;-81
2023/09/14 08:42:01;;;;;;;0.00;0.00;;;16.30;99.90;;;;;;5092050;28;20450;-81
2023/09/14 08:44:30;;;;;;;0.00;0.00;;;16.60;99.90;;;;;;5088680;28;20482;-81
2023/09/14 08:46:57;;;;;;;0.00;0.00;;;16.60;99.90;;;;;;5086960;28;20260;-80
2023/09/14 08:49:27;;;;;;;0.00;0.00;;;17.00;99.90;;;;;;5101837;28;20435;-81
2023/09/14 08:51:58;;;;;;;0.00;0.00;;;17.10;99.90;;;;;;5077471;28;20981;-81
2023/09/14 08:54:24;;;;;;;0.00;0.00;;;17.50;99.90;;;;;;5086882;28;20826;-81
2023/09/14 08:56:51;;;;;;;0.00;0.00;;;17.70;99.90;;;;;;5083558;28;20527;-81
2023/09/14 08:59:20;;;;;;;0.00;0.00;;;17.90;99.90;;;;;;5081973;28;20566;-81
2023/09/14 09:01:48;;;;;;;0.00;0.00;;;18.10;99.90;;;;;;5070030;28;20442;-81
2023/09/14 09:04:14;;;;;;;0.00;0.00;;;18.20;99.90;;;;;;5089102;28;20535;-80
2023/09/14 09:06:42;;;;;;;0.00;0.00;;;17.40;99.90;;;;;;5086222;28;20926;-80
2023/09/14 09:09:09;;;;;;;0.00;0.00;;;17.50;99.90;;;;;;5087749;28;20447;-81
2023/09/14 09:11:37;;;;;;;0.00;0.00;;;17.90;99.90;;;;;;5087280;28;20949;-82
2023/09/14 09:14:02;;;;;;;0.00;0.00;;;18.30;99.90;;;;;;5079852;28;20454;-80
2023/09/14 09:16:28;;;;;;;0.00;0.00;;;18.30;99.90;;;;;;5086964;28;20431;-81
2023/09/14 09:19:05;;;;;;;0.00;0.00;;;18.40;99.90;;;;;;5090428;28;20204;-79
2023/09/14 09:21:33;;;;;;;0.00;0.00;;;17.80;99.90;;;;;;5082533;28;20200;-80
2023/09/14 09:24:01;;;;;;;0.00;0.00;;;17.90;99.90;;;;;;5073891;28;20901;-81
2023/09/14 09:26:33;;;;;;;0.00;0.00;;;17.90;99.90;;;;;;5074074;28;20515;-81
2023/09/14 09:28:58;;;;;;;0.00;0.00;;;17.70;99.90;;;;;;5062856;28;20441;-81
2023/09/14 09:31:43;;;;;;;0.00;0.00;;;17.50;99.90;;;;;;5091605;28;20439;-81
2023/09/14 09:34:10;;;;;;;0.00;0.00;;;17.50;99.90;;;;;;5080234;28;20180;-81
2023/09/14 09:36:37;;;;;;;0.00;0.00;;;17.20;99.90;;;;;;5092985;28;20443;-81
2023/09/14 09:39:05;;;;;;;0.00;0.00;;;17.20;99.90;;;;;;5090377;28;20949;-80
2023/09/14 09:41:36;;;;;;;0.00;0.00;;;17.40;99.90;;;;;;5091332;28;20946;-80
2023/09/14 09:44:06;;;;;;;0.00;0.00;;;17.30;99.90;;;;;;5088254;28;20467;-80
2023/09/14 09:46:36;;;;;;;0.00;0.00;;;17.30;99.90;;;;;;5069344;28;20748;-80
2023/09/14 09:49:17;;;;;;;0.00;0.00;;;17.50;99.90;;;;;;5085057;28;21035;-81
2023/09/14 09:51:44;;;;;;;0.00;0.00;;;18.30;99.90;;;;;;5091018;28;20754;-80
2023/09/14 09:54:10;;;;;;;0.00;0.00;;;19.10;99.90;;;;;;5088966;28;21273;-81
2023/09/14 09:56:36;;;;;;;0.00;0.00;;;19.40;99.90;;;;;;5071599;28;20435;-81
2023/09/14 09:59:04;;;;;;;0.00;0.00;;;18.90;99.90;;;;;;5085779;28;20228;-81
2023/09/14 10:01:30;;;;;;;0.00;0.00;;;19.10;99.90;;;;;;5086496;28;20465;-80
2023/09/14 10:03:59;;;;;;;0.00;0.00;;;19.60;99.90;;;;;;5073554;28;21144;-82
2023/09/14 10:06:24;;;;;;;0.00;0.00;;;20.20;99.90;;;;;;5098844;28;20441;-82
2023/09/14 10:08:54;;;;;;;0.00;0.00;;;19.90;99.90;;;;;;5105027;28;20495;-81
2023/09/14 10:11:22;;;;;;;0.00;0.00;;;19.90;99.90;;;;;;5069003;28;20213;-81
2023/09/14 10:13:48;;;;;;;0.00;0.00;;;20.20;99.90;;;;;;5088195;28;20492;-81
2023/09/14 10:16:18;;;;;;;0.00;0.00;;;20.40;99.90;;;;;;5073143;28;20439;-80
2023/09/14 10:18:45;;;;;;;0.00;0.00;;;20.70;99.90;;;;;;5073646;28;20447;-79
2023/09/14 10:21:12;;;;;;;0.00;0.00;;;20.10;99.90;;;;;;5093741;28;20438;-79
2023/09/14 10:23:38;;;;;;;0.00;0.00;;;19.40;99.90;;;;;;5093681;28;20516;-79
2023/09/14 10:26:04;;;;;;;0.00;0.00;;;18.70;99.90;;;;;;5095605;28;20454;-80
2023/09/14 10:28:30;;;;;;;0.00;0.00;;;19.70;99.90;;;;;;5109258;28;20945;-80
2023/09/14 10:30:58;;;;;;;0.00;0.00;;;20.00;99.90;;;;;;5093220;28;20185;-79
2023/09/14 10:33:25;;;;;;;0.00;0.00;;;20.40;99.90;;;;;;5074165;28;20454;-78
2023/09/14 10:35:53;;;;;;;0.00;0.00;;;20.10;99.90;;;;;;5092770;28;20443;-79
2023/09/14 10:38:23;;;;;;;0.00;0.00;;;19.40;99.90;;;;;;5091442;28;20946;-80
2023/09/14 10:40:50;;;;;;;0.00;0.00;;;19.70;99.90;;;;;;5096542;28;20437;-80
2023/09/14 10:43:16;;;;;;;0.00;0.00;;;19.70;99.90;;;;;;5113541;28;20437;-80
2023/09/14 10:45:45;;;;;;;0.00;0.00;;;19.70;99.90;;;;;;5084080;28;20578;-80
2023/09/14 10:48:17;;;;;;;0.00;0.00;;;19.60;99.90;;;;;;5073212;28;20209;-79
2023/09/14 10:50:42;;;;;;;0.00;0.00;;;19.60;99.90;;;;;;5078260;28;20600;-80
2023/09/14 10:53:08;;;;;;;0.00;0.00;;;20.20;99.90;;;;;;5079191;28;20553;-79
2023/09/14 10:55:35;;;;;;;0.00;0.00;;;19.80;99.90;;;;;;5083293;28;20231;-79
2023/09/14 10:58:02;;;;;;;0.00;0.00;;;19.90;99.90;;;;;;5074401;28;20630;-79
2023/09/14 11:00:55;;;;;;;0.00;0.00;;;19.20;99.90;;;;;;5086835;28;20432;-80
2023/09/14 11:03:22;;;;;;;0.00;0.00;;;18.80;99.90;;;;;;5061748;28;21189;-80
2023/09/14 11:05:52;;;;;;;0.00;0.00;;;19.60;99.90;;;;;;5091102;28;20486;-80
2023/09/14 11:08:18;;;;;;;0.00;0.00;;;20.40;99.90;;;;;;5086127;28;20445;-80
2023/09/14 11:10:53;;;;;;;0.00;0.00;;;21.20;99.90;;;;;;5078904;28;20450;-78
2023/09/14 11:13:19;;;;;;;0.00;0.00;;;22.90;99.90;;;;;;5081425;28;20434;-78
2023/09/14 11:15:54;;;;;;;0.00;0.00;;;24.20;99.90;;;;;;5086856;28;20538;-78
2023/09/14 11:18:37;;;;;;;0.00;0.00;;;23.30;99.90;;;;;;5079699;28;20199;-79
2023/09/14 11:21:03;;;;;;;0.00;0.00;;;21.80;99.90;;;;;;5087070;28;20439;-77
2023/09/14 11:23:35;;;;;;;0.00;0.00;;;21.30;99.90;;;;;;5085663;28;20474;-80
2023/09/14 11:26:02;;;;;;;0.00;0.00;;;20.50;99.90;;;;;;5080637;28;20446;-80
2023/09/14 11:28:29;;;;;;;0.00;0.00;;;20.00;99.90;;;;;;5078143;28;20434;-80
2023/09/14 11:30:55;;;;;;;0.00;0.00;;;19.50;99.90;;;;;;5085282;28;20454;-80
2023/09/14 11:33:22;;;;;;;0.00;0.00;;;19.10;99.90;;;;;;5089693;28;20479;-80
2023/09/14 11:35:50;;;;;;;0.00;0.00;;;19.40;99.90;;;;;;5086508;28;20525;-80
2023/09/14 11:38:20;;;;;;;0.00;0.00;;;19.70;99.90;;;;;;5090604;28;20428;-80
2023/09/14 11:40:47;;;;;;;0.00;0.00;;;19.80;99.90;;;;;;5070291;28;20936;-80
2023/09/14 11:43:21;;;;;;;0.00;0.00;;;21.70;99.90;;;;;;5062013;28;20451;-77
2023/09/14 11:45:49;;;;;;;0.00;0.00;;;22.70;99.90;;;;;;5081210;28;20967;-81
2023/09/14 11:48:16;;;;;;;0.00;0.00;;;22.00;99.90;;;;;;5080600;28;20935;-79
2023/09/14 11:50:47;;;;;;;0.00;0.00;;;21.00;99.90;;;;;;5089402;28;20923;-80
2023/09/14 11:53:18;;;;;;;0.00;0.00;;;20.00;99.90;;;;;;5064057;28;20439;-81
2023/09/14 11:55:48;;;;;;;0.00;0.00;;;20.60;99.90;;;;;;5071616;28;20446;-81
2023/09/14 11:58:15;;;;;;;0.00;0.00;;;21.40;99.90;;;;;;5061829;28;20534;-79
2023/09/14 12:00:43;;;;;;;0.00;0.00;;;22.00;99.90;;;;;;5073631;28;20448;-79
2023/09/14 12:03:10;;;;;;;0.00;0.00;;;21.20;99.90;;;;;;5069300;28;20436;-79
2023/09/14 12:05:36;;;;;;;0.00;0.00;;;22.30;99.90;;;;;;5073723;28;20686;-80
2023/09/14 12:08:09;;;;;;;0.00;0.00;;;23.30;99.90;;;;;;5070427;28;21179;-79
2023/09/14 12:10:37;;;;;;;0.00;0.00;;;22.70;99.90;;;;;;5073903;28;21031;-79
2023/09/14 12:13:12;;;;;;;0.00;0.00;;;22.20;99.90;;;;;;5072235;28;20874;-79
2023/09/14 12:15:38;;;;;;;0.00;0.00;;;21.50;99.90;;;;;;5074844;28;20450;-79
2023/09/14 12:18:06;;;;;;;0.00;0.00;;;23.00;99.90;;;;;;5068907;28;20794;-79
2023/09/14 12:20:34;;;;;;;0.00;0.00;;;22.80;99.90;;;;;;5081127;28;20794;-78
2023/09/14 12:23:01;;;;;;;0.00;0.00;;;21.70;99.90;;;;;;5065770;28;20600;-77
2023/09/14 12:25:27;;;;;;;0.00;0.00;;;20.40;99.90;;;;;;5068151;28;20480;-78
2023/09/14 12:27:53;;;;;;;0.00;0.00;;;20.00;99.90;;;;;;5069000;28;20962;-81
2023/09/14 12:30:18;;;;;;;0.00;0.00;;;19.20;99.90;;;;;;5070712;28;20559;-80
2023/09/14 12:32:44;;;;;;;0.00;0.00;;;19.00;99.90;;;;;;5069757;28;20188;-80
2023/09/14 12:35:10;;;;;;;0.00;0.00;;;19.00;99.90;;;;;;5065126;28;20190;-79
2023/09/14 12:37:36;;;;;;;0.00;0.00;;;18.90;99.90;;;;;;5066582;28;20436;-80
2023/09/14 12:40:10;;;;;;;0.00;0.00;;;18.90;99.90;;;;;;5066909;28;20570;-79
2023/09/14 12:42:37;;;;;;;0.00;0.00;;;18.80;99.90;;;;;;5062590;28;20959;-80
2023/09/14 12:45:17;;;;;;;0.00;0.00;;;18.90;99.90;;;;;;5060026;28;20492;-80
2023/09/14 12:47:45;;;;;;;0.00;0.00;;;19.50;99.90;;;;;;5080963;28;20444;-80
2023/09/14 12:50:15;;;;;;;0.00;0.00;;;19.50;99.90;;;;;;5066438;28;20446;-77